Time;durP1;ratioP1;P1;durP2;ratioP2;P2;SDS_P1;SDS_P2;PMS_P1;PMS_P2;Temp;Humidity;BMP_temperature;BMP_pressure;BME280_temperature;BME280_humidity;BME280_pressure;Samples;Min_cycle;Max_cycle;Signal;HPM_P1;HPM_P2
2022/01/19 00:01:13;;;;;;;2.47;1.58;;;6.30;99.90;;;;;;5054492;28;20074;-58
2022/01/19 00:03:38;;;;;;;2.13;1.85;;;6.30;99.90;;;;;;5053143;28;20032;-56
2022/01/19 00:06:05;;;;;;;2.60;1.92;;;6.30;99.90;;;;;;5039398;28;20025;-56
2022/01/19 00:08:31;;;;;;;2.97;1.88;;;6.20;99.90;;;;;;5036050;28;20026;-56
2022/01/19 00:10:57;;;;;;;4.15;2.17;;;6.10;99.90;;;;;;5035309;28;20075;-58
2022/01/19 00:13:23;;;;;;;4.00;2.20;;;6.10;99.90;;;;;;5035025;28;20055;-51
2022/01/19 00:15:49;;;;;;;1.35;1.00;;;6.10;99.90;;;;;;5034801;28;20025;-54
2022/01/19 00:18:18;;;;;;;3.17;1.20;;;6.00;99.90;;;;;;5052966;28;20040;-53
2022/01/19 00:20:44;;;;;;;1.63;1.23;;;5.80;99.90;;;;;;5053078;28;20036;-56
2022/01/19 00:23:10;;;;;;;1.42;1.23;;;5.80;99.90;;;;;;5052785;28;20029;-51
2022/01/19 00:25:37;;;;;;;2.33;1.40;;;5.80;99.90;;;;;;5052760;28;20056;-54
2022/01/19 00:28:03;;;;;;;4.07;1.67;;;5.90;99.90;;;;;;5034865;28;20064;-54
2022/01/19 00:30:29;;;;;;;1.45;1.30;;;5.80;99.90;;;;;;5035744;28;20028;-55
2022/01/19 00:32:54;;;;;;;2.30;1.45;;;5.80;99.90;;;;;;5035346;28;20057;-57
2022/01/19 00:35:20;;;;;;;2.42;1.52;;;5.70;99.90;;;;;;5035370;28;20116;-58
2022/01/19 00:37:46;;;;;;;2.05;1.50;;;5.80;99.90;;;;;;5052600;28;20036;-55
2022/01/19 00:40:14;;;;;;;5.47;1.65;;;5.80;99.90;;;;;;5034834;28;20045;-56
2022/01/19 00:42:41;;;;;;;4.80;2.15;;;5.90;99.90;;;;;;5055003;28;20053;-55
2022/01/19 00:45:07;;;;;;;3.03;1.80;;;5.90;99.90;;;;;;5037784;28;20029;-54
2022/01/19 00:47:33;;;;;;;3.00;1.80;;;5.90;99.90;;;;;;5056076;28;20021;-53
2022/01/19 00:49:59;;;;;;;2.72;1.80;;;5.90;99.90;;;;;;5056056;28;20021;-54
2022/01/19 00:52:25;;;;;;;3.60;1.92;;;5.90;99.90;;;;;;5056324;28;20043;-55
2022/01/19 00:54:50;;;;;;;2.25;1.80;;;6.00;99.90;;;;;;5055944;28;20525;-55
2022/01/19 00:57:16;;;;;;;2.63;1.67;;;6.00;99.90;;;;;;5038138;28;20025;-57
2022/01/19 00:59:42;;;;;;;1.98;1.52;;;6.00;99.90;;;;;;5038388;28;20043;-58
2022/01/19 01:02:07;;;;;;;1.90;1.70;;;6.00;99.90;;;;;;5038286;28;20031;-53
2022/01/19 01:04:33;;;;;;;2.40;1.70;;;6.10;99.90;;;;;;5055866;28;20051;-54
2022/01/19 01:07:00;;;;;;;9.68;1.83;;;6.00;99.90;;;;;;5055735;28;20025;-53
2022/01/19 01:09:26;;;;;;;2.17;1.55;;;6.10;99.90;;;;;;5037847;28;20025;-54
2022/01/19 01:12:00;;;;;;;3.55;1.80;;;6.10;99.90;;;;;;5038188;28;20017;-57
2022/01/19 01:19:56;;;;;;;2.70;1.73;;;6.10;99.90;;;;;;5056380;28;20060;-59
2022/01/19 01:22:21;;;;;;;2.78;1.70;;;6.00;99.90;;;;;;5038044;28;20025;-62
2022/01/19 01:24:47;;;;;;;3.90;1.95;;;6.00;99.90;;;;;;5037564;28;20021;-54
2022/01/19 01:27:12;;;;;;;3.08;1.20;;;6.00;99.90;;;;;;5037407;28;20029;-58
2022/01/19 01:29:38;;;;;;;2.15;1.23;;;6.30;99.90;;;;;;5037863;28;20028;-58
2022/01/19 01:32:04;;;;;;;2.50;1.10;;;6.20;99.90;;;;;;5037404;28;20070;-57
2022/01/19 01:34:29;;;;;;;1.42;0.90;;;6.30;99.90;;;;;;5055234;28;20021;-57
2022/01/19 01:36:55;;;;;;;1.10;0.80;;;6.30;99.90;;;;;;5055412;28;20060;-56
2022/01/19 01:39:21;;;;;;;1.10;1.00;;;6.20;99.90;;;;;;5055133;28;20032;-56
2022/01/19 01:41:46;;;;;;;2.75;1.20;;;6.00;99.90;;;;;;5037675;28;20029;-55
2022/01/19 01:44:12;;;;;;;1.48;1.15;;;5.80;99.90;;;;;;5055436;28;20431;-57
2022/01/19 01:46:46;;;;;;;1.30;1.20;;;5.70;99.90;;;;;;5037232;28;20025;-55
2022/01/19 01:49:18;;;;;;;1.73;1.05;;;5.60;99.90;;;;;;5055506;28;20047;-56
2022/01/19 01:54:29;;;;;;;1.20;0.98;;;6.00;99.90;;;;;;5055314;28;20040;-55
2022/01/19 01:56:55;;;;;;;3.42;1.02;;;6.30;99.90;;;;;;5053670;28;20481;-54
2022/01/19 01:59:21;;;;;;;2.25;1.30;;;6.40;99.90;;;;;;5055126;28;20078;-58
2022/01/19 02:01:47;;;;;;;1.40;1.30;;;6.50;99.90;;;;;;5037178;28;20021;-58
2022/01/19 02:04:12;;;;;;;1.30;1.08;;;6.50;99.90;;;;;;5036940;28;20025;-58
2022/01/19 02:09:25;;;;;;;1.73;1.40;;;6.20;99.90;;;;;;5055022;28;20086;-58
2022/01/19 02:22:52;;;;;;;1.90;1.80;;;5.70;99.90;;;;;;5054408;28;20031;-53
2022/01/19 02:25:18;;;;;;;2.70;1.90;;;5.70;99.90;;;;;;5037302;28;20029;-58
2022/01/19 02:31:03;;;;;;;2.15;1.52;;;6.00;99.90;;;;;;5054876;28;20028;-55
2022/01/19 02:41:28;;;;;;;2.28;1.42;;;6.00;99.90;;;;;;5054333;28;20538;-51
2022/01/19 02:43:55;;;;;;;1.52;1.42;;;5.60;99.90;;;;;;5053938;28;20013;-56
2022/01/19 02:49:17;;;;;;;1.60;1.50;;;5.70;99.90;;;;;;5054223;28;20036;-52
2022/01/19 02:51:49;;;;;;;2.35;1.67;;;5.70;99.90;;;;;;5036074;28;20116;-55
2022/01/19 02:54:17;;;;;;;2.97;1.65;;;5.70;99.90;;;;;;5036206;28;20021;-55
2022/01/19 02:56:47;;;;;;;1.55;1.45;;;5.80;99.90;;;;;;5053673;28;20029;-56
2022/01/19 03:09:42;;;;;;;1.20;1.10;;;5.50;99.90;;;;;;5053546;28;20017;-57
2022/01/19 03:12:09;;;;;;;2.78;1.60;;;5.70;99.90;;;;;;5035495;28;20025;-56
2022/01/19 03:14:35;;;;;;;1.73;1.50;;;6.00;99.90;;;;;;5053463;28;20086;-56
2022/01/19 03:17:01;;;;;;;4.40;1.50;;;6.10;99.90;;;;;;5035355;28;20086;-57
2022/01/19 03:19:28;;;;;;;1.52;1.42;;;6.10;99.90;;;;;;5035543;28;20029;-56
2022/01/19 03:21:54;;;;;;;2.50;1.45;;;6.00;99.90;;;;;;5053701;28;20025;-58
2022/01/19 03:24:20;;;;;;;2.63;1.88;;;6.00;99.90;;;;;;5053355;28;20025;-55
2022/01/19 03:26:46;;;;;;;2.85;1.60;;;6.00;99.90;;;;;;5035421;28;20060;-54
2022/01/19 03:29:12;;;;;;;1.42;1.30;;;6.00;99.90;;;;;;5035821;28;20053;-55
2022/01/19 03:31:37;;;;;;;4.03;2.22;;;6.10;99.90;;;;;;5053443;28;20028;-56
2022/01/19 03:34:05;;;;;;;2.08;1.88;;;6.10;99.90;;;;;;5035751;28;20043;-56
2022/01/19 03:36:31;;;;;;;3.60;1.83;;;6.00;99.90;;;;;;5053160;28;20031;-54
2022/01/19 03:38:56;;;;;;;2.17;1.60;;;6.00;99.90;;;;;;5053122;28;20111;-55
2022/01/19 03:41:22;;;;;;;3.28;1.83;;;6.00;99.90;;;;;;5053559;28;20032;-56
2022/01/19 03:43:48;;;;;;;3.28;2.30;;;5.80;99.90;;;;;;5035224;28;20029;-57
2022/01/19 03:46:15;;;;;;;3.80;2.95;;;6.00;99.90;;;;;;5035120;28;20029;-52
2022/01/19 03:48:51;;;;;;;3.00;2.70;;;6.10;99.90;;;;;;5053201;28;20021;-52
2022/01/19 03:51:17;;;;;;;2.58;2.25;;;6.20;99.90;;;;;;5053144;28;20075;-53
2022/01/19 03:53:43;;;;;;;4.43;2.35;;;6.00;99.90;;;;;;5053002;28;20025;-57
2022/01/19 03:56:08;;;;;;;7.55;3.13;;;6.10;99.90;;;;;;5053232;28;20029;-53
2022/01/19 03:58:36;;;;;;;2.75;2.35;;;6.30;99.90;;;;;;5035204;28;20120;-56
2022/01/19 04:01:03;;;;;;;3.15;2.55;;;6.50;99.90;;;;;;5035146;28;20021;-52
2022/01/19 04:06:14;;;;;;;2.97;2.67;;;6.30;99.90;;;;;;5053060;28;20029;-56
2022/01/19 04:08:39;;;;;;;3.08;2.47;;;6.40;99.90;;;;;;5035305;28;20115;-54
2022/01/19 04:11:05;;;;;;;3.45;2.50;;;6.30;99.90;;;;;;5034971;28;20104;-56
2022/01/19 04:13:44;;;;;;;3.38;2.35;;;6.40;99.90;;;;;;5034989;28;20064;-54
2022/01/19 04:16:10;;;;;;;2.15;1.75;;;6.20;99.90;;;;;;5052719;28;20117;-55
2022/01/19 04:18:36;;;;;;;4.35;2.08;;;6.40;99.90;;;;;;5035266;28;20018;-58
2022/01/19 04:21:02;;;;;;;4.03;2.65;;;6.60;99.90;;;;;;5056741;28;20021;-54
2022/01/19 04:23:28;;;;;;;3.55;2.20;;;6.60;99.90;;;;;;5057095;28;20029;-56
2022/01/19 04:25:54;;;;;;;1.58;1.48;;;6.60;99.90;;;;;;5056814;28;20017;-58
2022/01/19 04:28:20;;;;;;;2.05;1.80;;;6.70;99.90;;;;;;5056460;28;20017;-58
2022/01/19 04:30:45;;;;;;;4.13;2.22;;;6.70;99.90;;;;;;5038835;28;20028;-57
2022/01/19 04:33:19;;;;;;;1.63;1.50;;;6.60;99.90;;;;;;5056366;28;20021;-59
2022/01/19 04:35:52;;;;;;;2.22;1.98;;;6.90;99.90;;;;;;5038457;28;20049;-59
2022/01/19 05:03:20;;;;;;;1.58;1.40;;;6.50;99.90;;;;;;5056625;28;20040;-54
2022/01/19 05:08:41;;;;;;;1.73;1.60;;;6.60;99.90;;;;;;5056271;28;20029;-57
2022/01/19 05:13:51;;;;;;;4.55;2.47;;;6.40;99.90;;;;;;5056347;28;20495;-58
2022/01/19 05:16:21;;;;;;;2.80;1.58;;;6.30;99.90;;;;;;5037893;28;20166;-56
2022/01/19 05:18:47;;;;;;;1.70;1.38;;;6.50;99.90;;;;;;5058995;28;20138;-55
2022/01/19 05:21:13;;;;;;;3.10;1.63;;;6.50;99.90;;;;;;5037981;28;20052;-52
2022/01/19 05:23:39;;;;;;;2.50;1.88;;;6.60;99.90;;;;;;5037730;28;20542;-53
2022/01/19 05:26:05;;;;;;;3.58;1.65;;;6.60;99.90;;;;;;5055741;28;20108;-56
2022/01/19 05:28:30;;;;;;;3.45;1.73;;;6.60;99.90;;;;;;5055341;28;20105;-58
2022/01/19 05:30:56;;;;;;;3.33;2.15;;;6.60;99.90;;;;;;5037475;28;20029;-56
2022/01/19 05:33:21;;;;;;;2.05;1.83;;;6.30;99.90;;;;;;5037615;28;20112;-56
2022/01/19 05:35:47;;;;;;;3.55;2.22;;;6.10;99.90;;;;;;5037523;28;20104;-54
2022/01/19 05:38:13;;;;;;;2.95;2.10;;;5.80;99.90;;;;;;5056048;28;20078;-53
2022/01/19 05:40:39;;;;;;;4.85;2.22;;;5.50;99.90;;;;;;5055510;28;20025;-57
2022/01/19 05:43:04;;;;;;;2.13;1.70;;;5.30;99.90;;;;;;5055271;28;20025;-57
2022/01/19 05:45:30;;;;;;;2.72;1.80;;;5.10;99.90;;;;;;5055247;28;20033;-58
2022/01/19 05:47:56;;;;;;;2.53;2.10;;;5.00;99.90;;;;;;5037521;28;20025;-59
2022/01/19 05:50:23;;;;;;;3.53;2.40;;;4.80;99.90;;;;;;5037533;28;20017;-55
2022/01/19 05:52:49;;;;;;;2.40;1.80;;;4.80;99.90;;;;;;5037146;28;20028;-57
2022/01/19 05:55:15;;;;;;;5.22;2.25;;;4.80;99.90;;;;;;5055152;28;20021;-54
2022/01/19 05:57:42;;;;;;;3.35;2.40;;;4.80;99.90;;;;;;5037034;28;20028;-57
2022/01/19 06:00:08;;;;;;;5.65;2.95;;;4.80;99.90;;;;;;5037045;28;20083;-55
2022/01/19 06:02:35;;;;;;;3.65;2.95;;;4.70;99.90;;;;;;5038081;28;20031;-57
2022/01/19 06:05:01;;;;;;;6.22;2.97;;;5.00;99.90;;;;;;5037724;28;20032;-54
2022/01/19 06:07:29;;;;;;;5.38;2.90;;;5.20;99.90;;;;;;5054672;28;20033;-55
2022/01/19 06:10:06;;;;;;;6.25;3.03;;;5.20;99.90;;;;;;5054796;28;20029;-57
2022/01/19 06:12:32;;;;;;;7.00;2.70;;;5.20;99.90;;;;;;5037701;28;20025;-55
2022/01/19 06:15:00;;;;;;;12.40;4.10;;;5.60;99.90;;;;;;5036907;28;20025;-54
2022/01/19 06:17:26;;;;;;;5.55;3.10;;;5.60;99.90;;;;;;5054330;28;20040;-57
2022/01/19 06:19:52;;;;;;;6.40;3.60;;;6.00;99.90;;;;;;5054853;28;20025;-54
2022/01/19 06:22:18;;;;;;;6.28;3.45;;;6.10;99.90;;;;;;5054366;28;20037;-56
2022/01/19 06:24:45;;;;;;;4.60;3.10;;;6.00;99.90;;;;;;5054679;28;20052;-58
2022/01/19 06:27:11;;;;;;;4.07;2.70;;;6.00;99.90;;;;;;5054345;28;20025;-57
2022/01/19 06:29:37;;;;;;;6.28;3.00;;;6.10;99.90;;;;;;5054205;28;20025;-59
2022/01/19 06:32:03;;;;;;;3.88;3.22;;;6.30;99.90;;;;;;5036769;28;20025;-58
2022/01/19 06:34:29;;;;;;;10.90;4.22;;;6.30;99.90;;;;;;5054263;28;20017;-58
2022/01/19 06:36:55;;;;;;;5.32;3.60;;;6.10;99.90;;;;;;5054055;28;20104;-54
2022/01/19 06:39:21;;;;;;;6.85;3.92;;;6.20;99.90;;;;;;5054386;28;20021;-56
2022/01/19 06:41:47;;;;;;;5.50;3.60;;;6.10;99.90;;;;;;5053509;28;20017;-55
2022/01/19 06:44:14;;;;;;;7.55;4.30;;;6.10;99.90;;;;;;5054329;28;20025;-54
2022/01/19 06:46:43;;;;;;;8.07;4.40;;;6.20;99.90;;;;;;5036336;28;20136;-56
2022/01/19 06:49:09;;;;;;;9.93;4.90;;;6.10;99.90;;;;;;5036168;28;20465;-54
2022/01/19 06:51:35;;;;;;;8.27;4.72;;;6.10;99.90;;;;;;5036024;28;20025;-52
2022/01/19 06:54:01;;;;;;;7.28;4.55;;;6.10;99.90;;;;;;5053728;28;20027;-57
2022/01/19 06:56:26;;;;;;;8.85;5.28;;;6.20;99.90;;;;;;5036252;28;20029;-57
2022/01/19 06:58:52;;;;;;;6.63;4.70;;;6.10;99.90;;;;;;5035956;28;20115;-56
2022/01/19 07:01:17;;;;;;;7.35;4.53;;;6.10;99.90;;;;;;5035906;28;20199;-59
2022/01/19 07:03:43;;;;;;;7.05;4.18;;;6.10;99.90;;;;;;5054010;28;20021;-53
2022/01/19 07:06:11;;;;;;;6.10;4.15;;;6.30;99.90;;;;;;5053861;28;20025;-55
2022/01/19 07:08:39;;;;;;;7.80;4.72;;;6.60;99.90;;;;;;5053640;28;20017;-54
2022/01/19 07:11:04;;;;;;;11.23;4.63;;;6.50;99.90;;;;;;5053559;28;20082;-57
2022/01/19 07:13:30;;;;;;;10.75;5.10;;;6.50;99.90;;;;;;5053584;28;20057;-58
2022/01/19 07:15:56;;;;;;;5.22;3.72;;;6.30;99.90;;;;;;5053428;28;20115;-58
2022/01/19 07:18:21;;;;;;;6.32;4.10;;;6.40;99.90;;;;;;5053851;28;20032;-53
2022/01/19 07:20:47;;;;;;;5.95;4.05;;;6.60;99.90;;;;;;5053932;28;20559;-51
2022/01/19 07:23:13;;;;;;;7.80;4.88;;;6.70;99.90;;;;;;5053472;28;20021;-56
2022/01/19 07:25:39;;;;;;;9.25;5.32;;;6.60;99.90;;;;;;5053409;28;20392;-56
2022/01/19 07:28:08;;;;;;;9.43;4.88;;;6.70;99.90;;;;;;5035731;28;20532;-53
2022/01/19 07:30:34;;;;;;;11.85;4.93;;;6.60;99.90;;;;;;5053760;28;20017;-57
2022/01/19 07:33:00;;;;;;;9.20;5.05;;;6.60;99.90;;;;;;5036993;28;20108;-54
2022/01/19 07:35:26;;;;;;;11.20;4.80;;;6.60;99.90;;;;;;5053398;28;20044;-57
2022/01/19 07:37:52;;;;;;;10.40;5.30;;;6.70;99.90;;;;;;5035844;28;20078;-55
2022/01/19 07:40:18;;;;;;;8.02;5.03;;;6.70;99.90;;;;;;5035281;28;20059;-57
2022/01/19 07:42:44;;;;;;;8.93;5.45;;;6.50;99.90;;;;;;5053238;28;20049;-52
2022/01/19 07:45:09;;;;;;;11.48;5.90;;;6.50;99.90;;;;;;5035287;28;20056;-57
2022/01/19 07:47:35;;;;;;;9.10;4.32;;;6.50;99.90;;;;;;5035360;28;20061;-56
2022/01/19 07:50:01;;;;;;;9.88;5.32;;;6.60;99.90;;;;;;5053110;28;20021;-59
2022/01/19 07:52:26;;;;;;;9.75;5.00;;;6.80;99.90;;;;;;5035290;28;20021;-56
2022/01/19 07:54:54;;;;;;;10.23;5.28;;;6.50;99.90;;;;;;5055301;28;20021;-58
2022/01/19 07:57:20;;;;;;;8.05;4.95;;;6.60;99.90;;;;;;5039789;28;20119;-54
2022/01/19 07:59:46;;;;;;;10.60;5.53;;;6.80;99.90;;;;;;5057487;28;20093;-56
2022/01/19 08:02:12;;;;;;;7.63;4.93;;;6.50;99.90;;;;;;5057402;28;20025;-56
2022/01/19 08:04:38;;;;;;;12.90;5.85;;;6.50;99.90;;;;;;5057655;28;20052;-57
2022/01/19 08:07:04;;;;;;;11.90;5.85;;;6.50;99.90;;;;;;5056903;28;20104;-59
2022/01/19 08:09:31;;;;;;;10.25;5.00;;;6.60;99.90;;;;;;5056818;28;20076;-54
2022/01/19 08:11:57;;;;;;;12.25;5.85;;;6.50;99.90;;;;;;5039510;28;20029;-59
2022/01/19 08:14:24;;;;;;;11.95;6.05;;;6.50;99.90;;;;;;5039755;28;20023;-58
2022/01/19 08:16:51;;;;;;;8.25;4.85;;;6.60;99.90;;;;;;5038979;28;20033;-54
2022/01/19 08:19:17;;;;;;;8.70;5.00;;;6.80;99.90;;;;;;5056428;28;20036;-57
2022/01/19 08:21:42;;;;;;;9.63;5.00;;;6.90;99.90;;;;;;5038842;28;20025;-59
2022/01/19 08:24:08;;;;;;;10.50;5.32;;;7.10;99.90;;;;;;5056917;28;20029;-56
2022/01/19 08:26:34;;;;;;;11.63;5.70;;;7.10;99.90;;;;;;5038834;28;20025;-58
2022/01/19 08:28:59;;;;;;;10.55;5.65;;;6.80;99.90;;;;;;5038590;28;20017;-57
2022/01/19 08:31:25;;;;;;;11.02;6.10;;;6.70;99.90;;;;;;5039053;28;20047;-53
2022/01/19 08:33:50;;;;;;;9.48;5.30;;;6.80;99.90;;;;;;5057087;28;20017;-53
2022/01/19 08:36:17;;;;;;;12.20;6.07;;;6.80;99.90;;;;;;5056448;28;20044;-54
2022/01/19 08:38:43;;;;;;;11.02;5.70;;;6.70;99.90;;;;;;5039274;28;20048;-52
2022/01/19 08:41:09;;;;;;;12.65;6.60;;;6.60;99.90;;;;;;5039056;28;20021;-53
2022/01/19 08:43:35;;;;;;;10.15;6.25;;;6.70;99.90;;;;;;5056322;28;20036;-54
2022/01/19 08:46:01;;;;;;;11.73;5.90;;;6.80;99.90;;;;;;5038350;28;20025;-57
2022/01/19 08:48:27;;;;;;;9.63;5.53;;;7.00;99.90;;;;;;5039190;28;20036;-56
2022/01/19 08:50:53;;;;;;;11.15;5.82;;;7.10;99.90;;;;;;5056142;28;20025;-59
2022/01/19 08:53:20;;;;;;;14.20;6.50;;;7.10;99.90;;;;;;5056156;28;20102;-54
2022/01/19 08:55:46;;;;;;;13.18;5.07;;;7.20;99.90;;;;;;5038220;28;20040;-56
2022/01/19 08:58:13;;;;;;;10.13;5.20;;;7.30;99.90;;;;;;5056257;28;20025;-55
2022/01/19 09:00:41;;;;;;;7.63;4.25;;;7.80;99.90;;;;;;5056126;28;20481;-58
2022/01/19 09:03:06;;;;;;;7.65;5.35;;;8.50;99.90;;;;;;5056039;28;20032;-54
2022/01/19 09:05:33;;;;;;;10.70;5.78;;;9.10;99.90;;;;;;5055287;28;20020;-56
2022/01/19 09:07:58;;;;;;;9.95;5.35;;;10.30;99.90;;;;;;5055865;28;20025;-51
2022/01/19 09:10:25;;;;;;;10.00;5.18;;;11.40;99.90;;;;;;5038470;28;20117;-51
2022/01/19 09:12:51;;;;;;;5.82;4.43;;;12.20;99.90;;;;;;5056072;28;20013;-55
2022/01/19 09:15:18;;;;;;;9.00;4.40;;;12.60;99.90;;;;;;5038060;28;20021;-52
2022/01/19 09:17:44;;;;;;;12.50;6.30;;;12.90;99.90;;;;;;5038654;28;20037;-56
2022/01/19 09:20:12;;;;;;;8.98;5.50;;;12.80;99.90;;;;;;5038322;28;20025;-55
2022/01/19 09:22:40;;;;;;;8.82;5.93;;;12.40;99.90;;;;;;5038079;28;20059;-56
2022/01/19 09:25:07;;;;;;;11.27;5.70;;;12.70;99.90;;;;;;5038030;28;20028;-55
2022/01/19 09:27:32;;;;;;;10.70;5.85;;;12.80;99.90;;;;;;5055936;28;20032;-52
2022/01/19 09:29:58;;;;;;;10.98;6.00;;;12.10;99.90;;;;;;5038170;28;20017;-56
2022/01/19 09:32:24;;;;;;;10.70;6.10;;;11.50;99.90;;;;;;5038125;28;20026;-58
2022/01/19 09:34:55;;;;;;;9.93;6.00;;;11.60;99.90;;;;;;5037471;28;20025;-52
2022/01/19 09:37:22;;;;;;;9.05;5.40;;;11.80;99.90;;;;;;5055377;28;20028;-58
2022/01/19 09:39:48;;;;;;;8.32;5.60;;;11.90;99.90;;;;;;5037542;28;20480;-58
2022/01/19 09:42:14;;;;;;;10.48;6.43;;;11.90;99.90;;;;;;5055517;28;20031;-56
2022/01/19 09:44:40;;;;;;;11.30;5.60;;;11.80;99.90;;;;;;5038023;28;20108;-56
2022/01/19 09:47:07;;;;;;;10.43;5.85;;;12.10;99.90;;;;;;5037392;28;20396;-55
2022/01/19 09:49:33;;;;;;;8.35;5.97;;;11.60;99.90;;;;;;5055465;28;20017;-52
2022/01/19 09:51:59;;;;;;;9.07;6.15;;;11.40;99.90;;;;;;5036993;28;20044;-55
2022/01/19 09:54:27;;;;;;;9.80;6.30;;;11.40;99.90;;;;;;5054823;28;20389;-53
2022/01/19 09:56:54;;;;;;;10.20;5.63;;;11.10;99.90;;;;;;5037200;28;20051;-57
2022/01/19 09:59:20;;;;;;;12.05;5.78;;;10.50;99.90;;;;;;5054729;28;20037;-56
2022/01/19 10:02:03;;;;;;;10.40;6.47;;;10.60;99.90;;;;;;5055005;28;20052;-56
2022/01/19 10:04:35;;;;;;;10.70;5.70;;;10.50;99.90;;;;;;5037039;28;20025;-56
2022/01/19 10:07:21;;;;;;;11.43;5.88;;;10.60;99.90;;;;;;5054507;28;20028;-54
2022/01/19 10:09:56;;;;;;;14.82;6.10;;;10.30;99.90;;;;;;5036833;28;20029;-51
2022/01/19 10:17:56;;;;;;;10.32;5.72;;;10.10;99.90;;;;;;5053890;28;20047;-54
2022/01/19 10:20:23;;;;;;;13.52;5.82;;;10.00;99.90;;;;;;5037338;28;20067;-52
2022/01/19 10:22:50;;;;;;;14.20;6.68;;;9.60;99.90;;;;;;5036679;28;20531;-55
2022/01/19 10:25:16;;;;;;;13.80;6.57;;;9.60;99.90;;;;;;5036363;28;20074;-50
2022/01/19 10:27:45;;;;;;;11.43;6.05;;;9.50;99.90;;;;;;5036217;28;20025;-57
2022/01/19 10:30:22;;;;;;;8.45;5.65;;;9.60;99.90;;;;;;5054286;28;20021;-55
2022/01/19 10:32:55;;;;;;;14.27;6.80;;;9.60;99.90;;;;;;5054258;28;20067;-56
2022/01/19 10:35:30;;;;;;;10.30;5.68;;;9.60;99.90;;;;;;5036954;28;20028;-56
2022/01/19 10:38:16;;;;;;;14.07;5.90;;;9.70;99.90;;;;;;5053901;28;20088;-57
2022/01/19 10:40:57;;;;;;;19.42;6.82;;;9.70;99.90;;;;;;5054061;28;20025;-57
2022/01/19 10:43:36;;;;;;;12.85;6.18;;;9.70;99.90;;;;;;5053856;28;20055;-57
2022/01/19 10:46:21;;;;;;;12.80;6.15;;;9.80;99.90;;;;;;5053756;28;20031;-60
2022/01/19 10:48:46;;;;;;;11.95;6.10;;;9.70;99.90;;;;;;5036042;28;20029;-54
2022/01/19 10:51:20;;;;;;;11.77;6.13;;;9.30;99.90;;;;;;5036002;28;20025;-55
2022/01/19 10:54:04;;;;;;;18.92;7.65;;;9.40;99.90;;;;;;5037081;28;20036;-54
2022/01/19 10:56:30;;;;;;;10.30;5.50;;;9.20;99.90;;;;;;5053794;28;20025;-58
2022/01/19 10:58:59;;;;;;;16.90;6.85;;;9.30;99.90;;;;;;5053747;28;20025;-55
2022/01/19 11:01:47;;;;;;;19.85;7.28;;;9.30;99.90;;;;;;5036210;28;20025;-58
2022/01/19 11:04:34;;;;;;;14.85;5.68;;;9.30;99.90;;;;;;5035742;28;20027;-54
2022/01/19 11:07:01;;;;;;;28.70;10.55;;;9.50;99.90;;;;;;5053521;28;20104;-55
2022/01/19 11:09:29;;;;;;;18.27;8.38;;;9.40;99.90;;;;;;5053561;28;20017;-58
2022/01/19 11:11:59;;;;;;;15.65;7.30;;;9.30;99.90;;;;;;5036095;28;20056;-55
2022/01/19 11:14:26;;;;;;;27.92;12.40;;;9.20;99.90;;;;;;5035887;28;20017;-51
2022/01/19 11:16:52;;;;;;;21.95;9.15;;;8.90;99.90;;;;;;5035744;28;20029;-58
2022/01/19 11:19:20;;;;;;;22.60;10.18;;;8.90;99.90;;;;;;5036521;28;20176;-55
2022/01/19 11:22:12;;;;;;;32.95;11.77;;;8.80;99.90;;;;;;5053645;28;20025;-53
2022/01/19 11:24:57;;;;;;;22.15;10.13;;;8.70;99.90;;;;;;5036666;28;20032;-57
2022/01/19 11:27:28;;;;;;;20.35;8.43;;;8.80;99.90;;;;;;5053525;28;20025;-57
2022/01/19 11:30:14;;;;;;;28.67;11.38;;;8.90;99.90;;;;;;5053203;28;20020;-55
2022/01/19 11:32:40;;;;;;;21.73;8.65;;;9.10;99.90;;;;;;5035601;28;20159;-52
2022/01/19 11:35:07;;;;;;;23.13;10.05;;;9.10;99.90;;;;;;5035518;28;20112;-55
2022/01/19 11:37:40;;;;;;;16.95;8.93;;;8.90;99.90;;;;;;5053438;28;20103;-51
2022/01/19 11:40:06;;;;;;;19.13;9.02;;;8.70;99.90;;;;;;5053640;28;20117;-50
2022/01/19 11:42:32;;;;;;;11.25;6.03;;;8.50;99.90;;;;;;5035434;28;20116;-51
2022/01/19 11:44:58;;;;;;;19.33;8.55;;;8.60;99.90;;;;;;5053478;28;20025;-51
2022/01/19 11:47:29;;;;;;;17.38;7.57;;;8.80;99.90;;;;;;5035859;28;20028;-50
2022/01/19 11:49:55;;;;;;;17.55;7.35;;;8.90;99.90;;;;;;5035846;28;20021;-51
2022/01/19 11:52:43;;;;;;;17.27;7.82;;;9.00;99.90;;;;;;5035964;28;20025;-54
2022/01/19 11:55:15;;;;;;;16.70;7.80;;;9.20;99.90;;;;;;5039548;28;20040;-52
2022/01/19 11:57:42;;;;;;;12.45;6.28;;;9.30;99.90;;;;;;5035453;28;20025;-56
2022/01/19 12:00:18;;;;;;;27.50;9.82;;;9.10;99.90;;;;;;5053132;28;20049;-51
2022/01/19 12:02:47;;;;;;;25.00;9.70;;;8.90;99.90;;;;;;5053176;28;20025;-52
2022/01/19 12:05:24;;;;;;;20.40;8.30;;;8.70;99.90;;;;;;5053317;28;20028;-53
2022/01/19 12:08:12;;;;;;;30.48;10.82;;;8.70;99.90;;;;;;5035277;28;20021;-54
2022/01/19 12:10:43;;;;;;;16.92;7.05;;;8.60;99.90;;;;;;5052596;28;20060;-51
2022/01/19 12:16:25;;;;;;;19.58;7.65;;;8.50;99.90;;;;;;5053362;28;20036;-50
2022/01/19 12:18:53;;;;;;;22.23;9.48;;;8.40;99.90;;;;;;5036057;28;20029;-53
2022/01/19 12:21:21;;;;;;;17.38;8.73;;;8.40;99.90;;;;;;5053077;28;20048;-54
2022/01/19 12:23:48;;;;;;;22.08;9.70;;;8.30;99.90;;;;;;5035141;28;20028;-53
2022/01/19 12:26:15;;;;;;;19.98;9.65;;;8.30;99.90;;;;;;5034836;28;20024;-56
2022/01/19 12:28:47;;;;;;;13.95;6.38;;;8.30;99.90;;;;;;5035769;28;20025;-59
2022/01/19 12:31:24;;;;;;;21.38;8.70;;;8.40;99.90;;;;;;5052809;28;20096;-55
2022/01/19 12:34:02;;;;;;;32.67;12.60;;;8.40;99.90;;;;;;5052685;28;20021;-54
2022/01/19 12:36:44;;;;;;;16.80;7.82;;;8.20;99.90;;;;;;5034767;28;20066;-54
2022/01/19 12:39:25;;;;;;;16.90;7.55;;;8.20;99.90;;;;;;5034900;28;20013;-58
2022/01/19 12:42:19;;;;;;;23.57;8.20;;;8.20;99.90;;;;;;5056043;28;20021;-55
2022/01/19 12:44:49;;;;;;;19.20;8.63;;;8.00;99.90;;;;;;5038448;28;20021;-53
2022/01/19 12:47:27;;;;;;;15.57;6.78;;;7.90;99.90;;;;;;5056539;28;20044;-53
2022/01/19 12:50:18;;;;;;;18.73;8.55;;;7.90;99.90;;;;;;5038232;28;20021;-55
2022/01/19 12:52:54;;;;;;;20.20;8.32;;;7.90;99.90;;;;;;5038113;28;20028;-56
2022/01/19 12:55:22;;;;;;;18.95;9.10;;;7.90;99.90;;;;;;5038215;28;20037;-51
2022/01/19 12:57:49;;;;;;;15.15;7.20;;;7.70;99.90;;;;;;5056251;28;20017;-51
2022/01/19 13:00:20;;;;;;;17.02;7.65;;;7.70;99.90;;;;;;5055973;28;20099;-56
2022/01/19 13:02:46;;;;;;;15.38;7.78;;;7.70;99.90;;;;;;5038329;28;20064;-54
2022/01/19 13:05:15;;;;;;;17.73;8.70;;;7.60;99.90;;;;;;5056480;28;20029;-53
2022/01/19 13:07:55;;;;;;;21.70;10.85;;;7.50;99.90;;;;;;5055663;28;20362;-57
2022/01/19 13:10:42;;;;;;;20.65;10.73;;;7.40;99.90;;;;;;5056128;28;20017;-53
2022/01/19 13:13:12;;;;;;;25.38;10.70;;;7.60;99.90;;;;;;5037924;28;20088;-52
2022/01/19 13:15:49;;;;;;;22.73;9.98;;;7.50;99.90;;;;;;5038018;28;20017;-55
2022/01/19 13:18:31;;;;;;;19.95;8.32;;;7.40;99.90;;;;;;5038451;28;20032;-57
2022/01/19 13:21:03;;;;;;;20.77;10.38;;;7.40;99.90;;;;;;5055525;28;20029;-54
2022/01/19 13:23:31;;;;;;;19.45;9.80;;;7.30;99.90;;;;;;5037723;28;20021;-52
2022/01/19 13:25:59;;;;;;;20.65;9.68;;;7.30;99.90;;;;;;5055422;28;20025;-55
2022/01/19 13:28:30;;;;;;;12.40;5.93;;;7.20;99.90;;;;;;5037403;28;20021;-54
2022/01/19 13:31:08;;;;;;;13.18;5.88;;;7.20;99.90;;;;;;5055474;28;20519;-53
2022/01/19 13:33:33;;;;;;;13.23;6.13;;;7.30;99.90;;;;;;5055631;28;20017;-54
2022/01/19 13:36:01;;;;;;;13.93;7.15;;;7.40;99.90;;;;;;5037350;28;20079;-55
2022/01/19 13:38:27;;;;;;;14.52;6.65;;;7.30;99.90;;;;;;5037457;28;20029;-55
2022/01/19 13:41:07;;;;;;;16.88;6.80;;;7.20;99.90;;;;;;5038238;28;20025;-57
2022/01/19 13:43:36;;;;;;;11.65;6.53;;;7.20;99.90;;;;;;5055417;28;20028;-51
2022/01/19 13:46:12;;;;;;;13.73;7.03;;;7.20;99.90;;;;;;5037602;28;20078;-52
2022/01/19 13:48:39;;;;;;;12.30;6.68;;;7.30;99.90;;;;;;5055357;28;20051;-55
2022/01/19 13:51:09;;;;;;;15.10;6.50;;;7.30;99.90;;;;;;5037050;28;20028;-54
2022/01/19 13:53:43;;;;;;;16.13;6.30;;;7.30;99.90;;;;;;5054947;28;20017;-56
2022/01/19 13:56:15;;;;;;;13.27;6.50;;;7.50;99.90;;;;;;5037019;28;20016;-56
2022/01/19 13:59:08;;;;;;;9.38;4.57;;;7.60;99.90;;;;;;5037144;28;20040;-55
2022/01/19 14:01:56;;;;;;;9.98;4.72;;;7.80;99.90;;;;;;5023373;28;20051;-57
2022/01/19 14:04:22;;;;;;;19.45;9.52;;;7.80;99.90;;;;;;5037661;28;20028;-55
2022/01/19 14:06:49;;;;;;;19.75;9.90;;;7.60;99.90;;;;;;5036567;28;20025;-54
2022/01/19 14:09:34;;;;;;;15.02;7.85;;;7.40;99.90;;;;;;5037210;28;20043;-53
2022/01/19 14:12:06;;;;;;;20.48;8.90;;;7.10;99.90;;;;;;5054707;28;20021;-55
2022/01/19 14:14:42;;;;;;;16.48;7.10;;;7.10;99.90;;;;;;5054580;28;20053;-52
2022/01/19 14:17:10;;;;;;;11.95;6.68;;;6.90;99.90;;;;;;5036465;28;20029;-53
2022/01/19 14:19:43;;;;;;;9.52;6.07;;;6.90;99.90;;;;;;5036624;28;20025;-54
2022/01/19 14:22:21;;;;;;;8.57;5.20;;;6.90;99.90;;;;;;5054444;28;20049;-56
2022/01/19 14:24:54;;;;;;;9.70;4.95;;;6.90;99.90;;;;;;5036562;28;20025;-59
2022/01/19 14:27:23;;;;;;;8.63;3.70;;;6.90;99.90;;;;;;5054018;28;20028;-54